KLAA/LAA METAR and TAF weather

Enter ICAO airport designator
Station Type Date Time Source
KLAA METAR 2021/07/26 13:53 UTC NOAA

KLAA 261353Z AUTO 16010G16KT 10SM SCT100 22/19 A3010 RMK AO2 SLP149 T02220189


Station Type Date Time Source
KLAA Decoded METAR 2021/07/26 13:53 UTC NOAA

LAMAR MUNICIPAL AIRPORT, CO, United States (KLAA) 38-04N 102-41W 1119M
Jul 26, 2021 - 09:53 AM EDT / 2021.07.26 1353 UTC
Wind: from the SSE (160 degrees) at 12 MPH (10 KT) gusting to 18 MPH (16 KT):0
Visibility: 10 mile(s):0
Sky conditions: partly cloudy
Temperature: 72.0 F (22.2 C)
Dew Point: 66.0 F (18.9 C)
Relative Humidity: 81%
Pressure (altimeter): 30.1 in. Hg (1019 hPa)
ob: KLAA 261353Z AUTO 16010G16KT 10SM SCT100 22/19 A3010 RMK AO2 SLP149 T02220189
cycle: 14

Station Type Date Time Source
KLAA TAF UTC NOAA

Error!

Example: see airport list